createdAt,value
2023-01-05T00:02:00.889Z,87.10
2023-01-05T00:04:34.253Z,87.20
2023-01-05T00:07:07.834Z,87.30
2023-01-05T00:09:40.839Z,87.30
2023-01-05T00:12:32.889Z,87.40
2023-01-05T00:15:18.013Z,87.50
2023-01-05T00:18:09.843Z,87.50
2023-01-05T00:20:55.151Z,87.60
2023-01-05T00:23:28.897Z,87.50
2023-01-05T00:25:55.739Z,87.40
2023-01-05T00:28:28.875Z,87.50
2023-01-05T00:31:01.814Z,87.40
2023-01-05T00:33:28.648Z,87.50
2023-01-05T00:36:01.858Z,87.60
2023-01-05T00:38:28.718Z,87.60
2023-01-05T00:41:01.830Z,87.60
2023-01-05T00:43:28.708Z,87.60
2023-01-05T00:45:55.575Z,87.60
2023-01-05T00:48:28.863Z,87.50
2023-01-05T00:51:01.934Z,87.40
2023-01-05T00:53:28.818Z,87.20
2023-01-05T00:56:02.819Z,87.20
2023-01-05T00:58:35.880Z,87.10
2023-01-05T01:01:15.087Z,87.00
2023-01-05T01:03:54.854Z,86.90
2023-01-05T01:06:21.764Z,87.00
2023-01-05T01:08:55.744Z,87.00
2023-01-05T01:11:22.576Z,86.90
2023-01-05T01:13:55.843Z,86.80
2023-01-05T01:16:23.843Z,86.90
2023-01-05T01:19:00.588Z,86.80
2023-01-05T01:21:37.838Z,86.70
2023-01-05T01:24:04.729Z,86.60
2023-01-05T01:26:37.863Z,86.50
2023-01-05T01:29:10.860Z,86.40
2023-01-05T01:31:43.828Z,86.30
2023-01-05T01:34:10.698Z,86.30
2023-01-05T01:36:43.842Z,86.20
2023-01-05T01:39:11.452Z,86.10
2023-01-05T01:41:44.899Z,86.00
2023-01-05T01:44:30.255Z,86.00
2023-01-05T01:47:03.842Z,86.00
2023-01-05T01:49:36.858Z,85.80
2023-01-05T01:52:09.874Z,85.60
2023-01-05T01:54:43.848Z,85.50
2023-01-05T01:57:11.778Z,85.40
2023-01-05T01:59:45.855Z,85.30
2023-01-05T02:02:19.944Z,85.30
2023-01-05T02:04:46.935Z,85.20
2023-01-05T02:07:21.853Z,85.00
2023-01-05T02:09:48.743Z,85.00
2023-01-05T02:12:30.911Z,84.80
2023-01-05T02:15:22.903Z,84.70
2023-01-05T02:18:14.931Z,84.40
2023-01-05T02:21:00.857Z,84.30
2023-01-05T02:23:53.859Z,84.20
2023-01-05T02:26:20.697Z,84.20
2023-01-05T02:29:02.958Z,84.10
2023-01-05T02:31:37.813Z,84.10
2023-01-05T02:34:13.851Z,84.00
2023-01-05T02:36:40.688Z,83.90
2023-01-05T02:39:24.882Z,83.90
2023-01-05T02:42:11.868Z,83.70
2023-01-05T02:44:38.719Z,83.70
2023-01-05T02:47:14.864Z,83.60
2023-01-05T02:49:41.740Z,83.50
2023-01-05T02:52:15.896Z,83.40
2023-01-05T02:54:55.976Z,83.40
2023-01-05T02:57:53.918Z,83.30
2023-01-05T03:00:33.907Z,83.20
2023-01-05T03:03:34.001Z,83.10
2023-01-05T03:06:24.858Z,82.90
2023-01-05T03:08:53.481Z,82.80
2023-01-05T03:11:45.894Z,82.70
2023-01-05T03:14:18.665Z,82.60
2023-01-05T03:16:52.926Z,82.50
2023-01-05T03:19:45.893Z,82.40
2023-01-05T03:22:34.242Z,82.20
2023-01-05T03:25:25.938Z,82.10
2023-01-05T03:28:13.014Z,82.00
2023-01-05T03:31:10.056Z,82.00
2023-01-05T03:34:09.407Z,82.00
2023-01-05T03:36:48.899Z,81.80
2023-01-05T03:39:22.876Z,81.70
2023-01-05T03:41:56.990Z,81.80
2023-01-05T03:44:30.886Z,81.70
2023-01-05T03:47:04.846Z,81.60
2023-01-05T03:49:31.805Z,81.50
2023-01-05T03:52:05.922Z,81.50
2023-01-05T03:54:32.817Z,81.30
2023-01-05T03:57:05.873Z,81.20
2023-01-05T03:59:32.758Z,81.10
2023-01-05T04:02:06.003Z,81.00
2023-01-05T04:04:32.951Z,81.00
2023-01-05T04:07:05.894Z,80.90
2023-01-05T04:09:38.881Z,80.90
2023-01-05T04:12:12.876Z,80.80
2023-01-05T04:14:45.923Z,80.80
2023-01-05T04:17:18.883Z,80.80
2023-01-05T04:19:45.735Z,80.80
2023-01-05T04:22:22.355Z,80.70
2023-01-05T04:24:53.778Z,80.60
2023-01-05T04:27:26.928Z,80.60
2023-01-05T04:29:59.914Z,80.50
2023-01-05T04:32:26.760Z,80.50
2023-01-05T04:35:03.899Z,80.50
2023-01-05T04:37:42.858Z,80.40
2023-01-05T04:40:09.931Z,80.40
2023-01-05T04:42:42.922Z,80.40
2023-01-05T04:45:16.923Z,80.40
2023-01-05T04:47:43.846Z,80.40
2023-01-05T04:50:17.914Z,80.20
2023-01-05T04:52:45.159Z,80.20
2023-01-05T04:55:18.919Z,80.10
2023-01-05T04:57:51.883Z,80.20
2023-01-05T05:00:24.928Z,80.30
2023-01-05T05:03:12.058Z,80.30
2023-01-05T05:05:45.900Z,80.40
2023-01-05T05:08:12.794Z,80.30
2023-01-05T05:10:45.932Z,80.20
2023-01-05T05:13:12.763Z,80.20
2023-01-05T05:15:45.961Z,80.20
2023-01-05T05:18:19.909Z,80.20
2023-01-05T05:20:49.088Z,80.10
2023-01-05T05:23:22.864Z,80.10
2023-01-05T05:25:50.459Z,80.00
2023-01-05T05:28:23.943Z,80.00
2023-01-05T05:30:50.974Z,80.10
2023-01-05T05:33:24.943Z,80.30
2023-01-05T05:35:51.892Z,80.70
2023-01-05T05:38:24.939Z,80.70
2023-01-05T05:40:51.810Z,80.80
2023-01-05T05:43:24.892Z,81.00
2023-01-05T05:45:57.905Z,81.10
2023-01-05T05:48:30.887Z,81.10
2023-01-05T05:51:03.944Z,81.00
2023-01-05T05:53:30.868Z,81.00
2023-01-05T05:56:03.918Z,81.10
2023-01-05T05:58:30.923Z,81.10
2023-01-05T06:01:05.955Z,81.10
2023-01-05T06:03:45.959Z,81.10
2023-01-05T06:06:12.996Z,81.20
2023-01-05T06:08:45.995Z,81.20
2023-01-05T06:11:12.946Z,81.10
2023-01-05T06:13:46.890Z,81.00
2023-01-05T06:16:13.794Z,81.00
2023-01-05T06:18:47.923Z,80.90
2023-01-05T06:21:14.841Z,81.00
2023-01-05T06:23:47.904Z,81.00
2023-01-05T06:26:14.799Z,81.10
2023-01-05T06:28:47.922Z,80.90
2023-01-05T06:31:14.897Z,80.90
2023-01-05T06:33:47.959Z,80.90
2023-01-05T06:36:14.889Z,80.90
2023-01-05T06:38:47.919Z,80.90
2023-01-05T06:41:14.839Z,80.90
2023-01-05T06:43:47.938Z,80.80
2023-01-05T06:46:14.831Z,80.70
2023-01-05T06:48:47.918Z,80.70
2023-01-05T06:51:14.835Z,80.70
2023-01-05T06:53:47.935Z,80.60
2023-01-05T06:56:14.959Z,80.60
2023-01-05T06:58:47.914Z,80.50
2023-01-05T07:01:15.171Z,80.50
2023-01-05T07:03:55.978Z,80.40
2023-01-05T07:06:32.045Z,80.40
2023-01-05T07:09:05.948Z,80.40
2023-01-05T07:11:32.830Z,80.40
2023-01-05T07:14:05.919Z,80.40
2023-01-05T07:16:39.009Z,80.40
2023-01-05T07:19:05.927Z,80.40
2023-01-05T07:21:38.909Z,80.30
2023-01-05T07:24:05.949Z,80.30
2023-01-05T07:26:38.929Z,80.30
2023-01-05T07:29:05.790Z,80.20
2023-01-05T07:31:38.953Z,80.20
2023-01-05T07:34:11.889Z,80.10
2023-01-05T07:36:44.900Z,80.00
2023-01-05T07:39:17.969Z,80.00
2023-01-05T07:41:50.939Z,79.90
2023-01-05T07:44:18.478Z,79.80
2023-01-05T07:46:51.909Z,79.80
2023-01-05T07:49:24.941Z,79.80
2023-01-05T07:51:51.786Z,79.70
2023-01-05T07:54:18.742Z,79.60
2023-01-05T07:56:51.917Z,79.40
2023-01-05T07:59:24.913Z,79.30
2023-01-05T08:01:58.049Z,79.30
2023-01-05T08:04:32.132Z,79.00
2023-01-05T08:07:05.942Z,78.60
2023-01-05T08:09:51.268Z,78.80
2023-01-05T08:12:24.936Z,78.50
2023-01-05T08:14:54.075Z,78.40
2023-01-05T08:17:27.976Z,78.00
2023-01-05T08:19:54.834Z,77.90
2023-01-05T08:22:27.905Z,77.90
2023-01-05T08:24:54.789Z,77.90
2023-01-05T08:27:27.941Z,77.80
2023-01-05T08:29:54.757Z,77.80
2023-01-05T08:32:27.909Z,77.80
2023-01-05T08:34:55.739Z,77.80
2023-01-05T08:37:28.946Z,77.80
2023-01-05T08:39:55.874Z,77.70
2023-01-05T08:42:28.966Z,77.80
2023-01-05T08:44:55.852Z,77.80
2023-01-05T08:47:28.980Z,77.80
2023-01-05T08:49:55.824Z,77.90
2023-01-05T08:52:29.916Z,78.00
2023-01-05T08:54:56.756Z,78.00
2023-01-05T08:57:29.912Z,78.00
2023-01-05T09:00:03.942Z,78.00
2023-01-05T09:02:44.405Z,78.10
2023-01-05T09:05:17.899Z,78.20
2023-01-05T09:07:45.138Z,78.30
2023-01-05T09:10:18.940Z,78.40
2023-01-05T09:12:51.930Z,78.50
2023-01-05T09:15:18.894Z,78.60
2023-01-05T09:17:51.984Z,79.10
2023-01-05T09:20:18.978Z,79.30
2023-01-05T09:22:51.977Z,79.30
2023-01-05T09:25:18.793Z,79.60
2023-01-05T09:27:51.943Z,79.70
2023-01-05T09:30:18.918Z,80.00
2023-01-05T09:32:51.970Z,80.50
2023-01-05T09:35:24.957Z,80.60
2023-01-05T09:37:57.938Z,80.70
2023-01-05T09:40:32.014Z,81.00
2023-01-05T09:42:58.903Z,81.10
2023-01-05T09:45:27.136Z,81.30
2023-01-05T09:48:01.947Z,81.80
2023-01-05T09:50:32.991Z,81.80
2023-01-05T09:53:07.007Z,82.00
2023-01-05T09:55:35.386Z,82.40
2023-01-05T09:58:18.994Z,82.40
2023-01-05T10:00:59.019Z,82.70
2023-01-05T10:06:34.892Z,82.80
2023-01-05T10:09:09.920Z,82.80
2023-01-05T10:12:04.962Z,82.70
2023-01-05T10:14:43.234Z,82.60
2023-01-05T10:20:26.572Z,82.60
2023-01-05T10:23:18.961Z,82.50
2023-01-05T10:26:04.968Z,82.50
2023-01-05T10:28:47.930Z,82.50
2023-01-05T10:31:42.681Z,82.50
2023-01-05T10:34:17.526Z,82.50
2023-01-05T10:37:10.912Z,82.60
2023-01-05T10:40:06.968Z,82.70
2023-01-05T10:42:51.246Z,82.70
2023-01-05T10:45:25.940Z,82.70
2023-01-05T10:47:59.977Z,82.70
2023-01-05T10:50:39.888Z,82.70
2023-01-05T10:53:24.027Z,82.60
2023-01-05T10:55:56.683Z,82.50
2023-01-05T10:58:33.962Z,82.50
2023-01-05T11:01:17.831Z,82.50
2023-01-05T11:07:14.088Z,82.60
2023-01-05T11:09:54.936Z,82.70
2023-01-05T11:12:23.660Z,82.80
2023-01-05T11:14:59.411Z,82.90
2023-01-05T11:17:34.037Z,82.70
2023-01-05T11:20:01.360Z,82.50
2023-01-05T11:22:36.175Z,82.60
2023-01-05T11:25:21.723Z,82.60
2023-01-05T11:28:11.045Z,82.80
2023-01-05T11:30:41.951Z,82.90
2023-01-05T11:33:28.953Z,83.20
2023-01-05T11:36:02.987Z,83.20
2023-01-05T11:38:30.825Z,83.40
2023-01-05T11:41:04.974Z,83.50
2023-01-05T11:43:32.652Z,83.40
2023-01-05T11:46:07.020Z,83.40
2023-01-05T11:48:36.832Z,83.40
2023-01-05T11:51:09.976Z,83.20
2023-01-05T11:53:38.312Z,83.10
2023-01-05T11:56:14.985Z,82.90
2023-01-05T11:58:51.024Z,82.90
2023-01-05T12:01:25.565Z,82.80
2023-01-05T12:04:11.014Z,82.60
2023-01-05T12:07:03.090Z,82.40
2023-01-05T12:09:48.983Z,82.30
2023-01-05T12:12:21.781Z,82.10
2023-01-05T12:14:54.955Z,81.90
2023-01-05T12:17:27.910Z,81.80
2023-01-05T12:20:03.955Z,81.70
2023-01-05T12:22:30.828Z,81.60
2023-01-05T12:24:57.701Z,81.50
2023-01-05T12:27:43.412Z,81.40
2023-01-05T12:36:05.290Z,81.20
2023-01-05T12:38:35.228Z,81.00
2023-01-05T12:41:14.958Z,80.90
2023-01-05T12:43:54.170Z,80.90
2023-01-05T12:46:33.126Z,80.90
2023-01-05T12:49:02.019Z,80.90
2023-01-05T12:51:35.095Z,81.20
2023-01-05T12:54:07.335Z,80.90
2023-01-05T12:56:36.445Z,80.60
2023-01-05T12:59:12.588Z,80.40
2023-01-05T13:01:43.164Z,80.10
2023-01-05T13:04:13.035Z,80.20
2023-01-05T13:06:41.344Z,80.00
2023-01-05T13:09:19.596Z,80.00
2023-01-05T13:11:53.618Z,80.10
2023-01-05T13:14:22.647Z,80.10
2023-01-05T13:16:58.353Z,80.00
2023-01-05T13:19:31.500Z,79.90
2023-01-05T13:21:59.048Z,79.80
2023-01-05T13:24:52.107Z,79.80
2023-01-05T13:27:19.130Z,79.80
2023-01-05T13:29:48.528Z,79.70
2023-01-05T13:32:34.344Z,79.70
2023-01-05T13:35:08.423Z,79.70
2023-01-05T13:37:41.610Z,79.60
2023-01-05T13:40:22.166Z,79.60
2023-01-05T13:42:49.072Z,79.60
2023-01-05T13:45:34.915Z,79.50
2023-01-05T13:48:07.493Z,79.40
2023-01-05T13:50:37.315Z,79.40
2023-01-05T13:53:04.294Z,79.40
2023-01-05T13:55:32.531Z,79.40
2023-01-05T13:57:59.469Z,79.40
2023-01-05T14:00:29.012Z,79.40
2023-01-05T14:02:59.646Z,79.40
2023-01-05T14:05:30.482Z,79.50
2023-01-05T14:07:59.287Z,79.50
2023-01-05T14:10:28.583Z,79.40
2023-01-05T14:12:55.784Z,79.40
2023-01-05T14:15:29.138Z,79.40
2023-01-05T14:18:02.114Z,79.50
2023-01-05T14:20:33.348Z,79.50
2023-01-05T14:23:01.089Z,79.50
2023-01-05T14:25:40.297Z,79.50
2023-01-05T14:28:19.371Z,79.50
2023-01-05T14:30:46.733Z,79.50
2023-01-05T14:33:13.636Z,79.50
2023-01-05T14:35:40.741Z,79.50
2023-01-05T14:38:18.449Z,79.50
2023-01-05T14:40:49.039Z,79.50
2023-01-05T14:43:35.268Z,79.50
2023-01-05T14:46:14.889Z,79.50
2023-01-05T14:49:00.986Z,79.50
2023-01-05T14:51:30.127Z,79.50
2023-01-05T14:53:58.428Z,79.50
2023-01-05T14:56:26.866Z,79.50
2023-01-05T14:58:56.822Z,79.50
2023-01-05T15:01:26.344Z,79.50
2023-01-05T15:03:55.507Z,79.50
2023-01-05T15:06:30.156Z,79.40
2023-01-05T15:09:06.255Z,79.40
2023-01-05T15:11:42.327Z,79.40
2023-01-05T15:14:37.551Z,79.30
2023-01-05T15:17:13.858Z,79.30
2023-01-05T15:19:48.374Z,79.30
2023-01-05T15:22:38.617Z,79.20
2023-01-05T15:25:10.891Z,79.10
2023-01-05T15:27:50.000Z,79.00
2023-01-05T15:30:22.941Z,78.90
2023-01-05T15:33:16.225Z,78.90
2023-01-05T15:35:51.764Z,78.80
2023-01-05T15:38:21.558Z,78.80
2023-01-05T15:40:49.129Z,78.70
2023-01-05T15:43:16.813Z,78.60
2023-01-05T15:45:49.968Z,78.60
2023-01-05T15:48:26.390Z,78.60
2023-01-05T15:50:55.132Z,78.50
2023-01-05T15:53:26.094Z,78.40
2023-01-05T15:55:53.560Z,78.30
2023-01-05T15:58:21.013Z,78.30
2023-01-05T16:01:04.680Z,78.30
2023-01-05T16:03:32.786Z,78.10
2023-01-05T16:06:01.467Z,78.00
2023-01-05T16:08:30.113Z,78.00
2023-01-05T16:11:00.985Z,77.70
2023-01-05T16:13:45.974Z,77.30
2023-01-05T16:16:50.568Z,77.30
2023-01-05T16:19:22.147Z,76.80
2023-01-05T16:21:53.707Z,76.70
2023-01-05T16:24:46.918Z,76.70
2023-01-05T16:27:14.284Z,76.60
2023-01-05T16:29:44.605Z,76.30
2023-01-05T16:32:26.613Z,76.40
2023-01-05T16:35:13.471Z,76.10
2023-01-05T16:37:40.440Z,76.00
2023-01-05T16:40:19.572Z,76.00
2023-01-05T16:42:50.576Z,76.10
2023-01-05T16:45:18.960Z,76.20
2023-01-05T16:47:46.233Z,75.90
2023-01-05T16:50:22.333Z,76.00
2023-01-05T16:52:52.351Z,76.00
2023-01-05T16:55:35.971Z,75.90
2023-01-05T16:58:04.300Z,75.90
2023-01-05T17:00:32.737Z,75.90
2023-01-05T17:03:00.254Z,75.90
2023-01-05T17:05:28.401Z,75.90
2023-01-05T17:08:15.646Z,75.90
2023-01-05T17:10:42.835Z,75.90
2023-01-05T17:13:14.767Z,75.90
2023-01-05T17:15:43.761Z,75.90
2023-01-05T17:18:15.126Z,75.90
2023-01-05T17:20:42.652Z,75.90
2023-01-05T17:23:15.296Z,75.90
2023-01-05T17:25:43.921Z,75.90
2023-01-05T17:28:10.767Z,75.90
2023-01-05T17:30:37.709Z,75.90
2023-01-05T17:33:06.203Z,75.90
2023-01-05T17:35:33.208Z,76.00
2023-01-05T17:38:00.227Z,76.00
2023-01-05T17:40:28.604Z,77.30
2023-01-05T17:42:55.529Z,77.30
2023-01-05T17:45:24.048Z,76.40
2023-01-05T17:47:51.318Z,75.80
2023-01-05T17:50:19.856Z,75.70
2023-01-05T17:52:46.777Z,75.60
2023-01-05T17:55:13.939Z,75.70
2023-01-05T17:57:42.512Z,75.70
2023-01-05T18:00:13.840Z,75.70
2023-01-05T18:02:41.137Z,75.80
2023-01-05T18:05:08.824Z,75.80
2023-01-05T18:07:36.442Z,75.80
2023-01-05T18:10:04.389Z,75.80
2023-01-05T18:12:31.350Z,75.90
2023-01-05T18:14:58.287Z,75.90
2023-01-05T18:17:25.260Z,76.00
2023-01-05T18:19:52.205Z,75.90
2023-01-05T18:22:19.351Z,75.90
2023-01-05T18:24:46.291Z,75.80
2023-01-05T18:27:13.324Z,75.80
2023-01-05T18:29:40.755Z,75.80
2023-01-05T18:32:08.383Z,75.80
2023-01-05T18:34:35.510Z,75.80
2023-01-05T18:37:05.870Z,75.80
2023-01-05T18:39:35.813Z,75.90
2023-01-05T18:42:02.764Z,75.90
2023-01-05T18:44:29.625Z,75.90
2023-01-05T18:46:56.519Z,76.00
2023-01-05T18:49:23.353Z,76.00
2023-01-05T18:51:51.445Z,76.00
2023-01-05T18:54:18.897Z,76.00
2023-01-05T18:56:45.766Z,76.10
2023-01-05T18:59:13.201Z,76.10
2023-01-05T19:01:43.045Z,76.30
2023-01-05T19:04:10.861Z,76.40
2023-01-05T19:06:38.088Z,76.50
2023-01-05T19:09:05.715Z,76.70
2023-01-05T19:11:33.037Z,76.80
2023-01-05T19:14:01.144Z,77.00
2023-01-05T19:16:29.868Z,77.10
2023-01-05T19:18:57.908Z,77.20
2023-01-05T19:21:26.710Z,77.40
2023-01-05T19:23:57.236Z,77.50
2023-01-05T19:26:24.961Z,77.50
2023-01-05T19:28:51.848Z,77.60
2023-01-05T19:31:19.249Z,77.70
2023-01-05T19:33:46.169Z,77.70
2023-01-05T19:36:20.531Z,77.80
2023-01-05T19:38:47.926Z,77.80
2023-01-05T19:41:19.851Z,77.80
2023-01-05T19:43:47.807Z,77.80
2023-01-05T19:46:18.066Z,77.80
2023-01-05T19:48:45.634Z,77.80
2023-01-05T19:51:16.914Z,77.80
2023-01-05T19:53:44.117Z,77.80
2023-01-05T19:56:12.590Z,77.80
2023-01-05T19:58:39.898Z,77.70
2023-01-05T20:01:08.522Z,77.70
2023-01-05T20:03:35.471Z,77.70
2023-01-05T20:06:09.836Z,77.60
2023-01-05T20:08:37.085Z,77.60
2023-01-05T20:11:11.375Z,77.50
2023-01-05T20:13:38.864Z,77.40
2023-01-05T20:16:12.302Z,77.40
2023-01-05T20:18:39.639Z,77.40
2023-01-05T20:21:07.587Z,77.40
2023-01-05T20:23:37.506Z,77.30
2023-01-05T20:26:14.818Z,77.30
2023-01-05T20:28:41.845Z,77.30
2023-01-05T20:31:22.083Z,77.20
2023-01-05T20:33:48.989Z,77.20
2023-01-05T20:36:15.894Z,77.30
2023-01-05T20:38:42.966Z,77.20
2023-01-05T20:41:14.231Z,77.20
2023-01-05T20:43:42.379Z,77.20
2023-01-05T20:46:09.418Z,77.20
2023-01-05T20:48:36.314Z,77.10
2023-01-05T20:51:04.314Z,77.10
2023-01-05T20:53:31.179Z,77.10
2023-01-05T20:55:58.072Z,77.00
2023-01-05T20:58:27.021Z,77.00
2023-01-05T21:01:10.724Z,77.10
2023-01-05T21:03:38.958Z,77.10
2023-01-05T21:06:06.632Z,77.10
2023-01-05T21:08:33.503Z,77.10
2023-01-05T21:11:01.423Z,77.10
2023-01-05T21:13:32.308Z,77.20
2023-01-05T21:16:01.120Z,77.10
2023-01-05T21:18:28.176Z,77.10
2023-01-05T21:20:55.247Z,77.10
2023-01-05T21:23:22.741Z,77.20
2023-01-05T21:26:05.540Z,77.20
2023-01-05T21:28:35.471Z,77.20
2023-01-05T21:31:03.887Z,77.20
2023-01-05T21:33:31.283Z,77.20
2023-01-05T21:35:58.227Z,77.20
2023-01-05T21:38:25.370Z,77.10
2023-01-05T21:41:00.026Z,77.10
2023-01-05T21:43:26.846Z,77.10
2023-01-05T21:45:53.806Z,77.20
2023-01-05T21:48:20.729Z,77.20
2023-01-05T21:51:06.318Z,77.10
2023-01-05T21:53:51.651Z,77.10
2023-01-05T21:56:27.634Z,77.10
2023-01-05T21:58:55.035Z,77.10
2023-01-05T22:01:23.454Z,77.10
2023-01-05T22:03:50.844Z,77.00
2023-01-05T22:06:18.374Z,77.00
2023-01-05T22:08:45.424Z,77.00
2023-01-05T22:11:12.607Z,77.00
2023-01-05T22:13:40.190Z,77.00
2023-01-05T22:16:07.885Z,77.10
2023-01-05T22:18:35.189Z,77.10
2023-01-05T22:21:03.542Z,77.10
2023-01-05T22:23:31.084Z,77.10
2023-01-05T22:26:02.233Z,77.10
2023-01-05T22:28:29.441Z,77.10
2023-01-05T22:31:16.942Z,77.10
2023-01-05T22:33:45.172Z,77.10
2023-01-05T22:36:13.141Z,77.10
2023-01-05T22:38:41.274Z,77.10
2023-01-05T22:41:08.963Z,77.10
2023-01-05T22:43:36.881Z,77.10
2023-01-05T22:46:06.188Z,77.10
2023-01-05T22:48:34.359Z,77.20
2023-01-05T22:51:06.302Z,77.20
2023-01-05T22:53:34.087Z,77.20
2023-01-05T22:56:01.704Z,77.20
2023-01-05T22:58:28.921Z,77.20
2023-01-05T23:00:56.049Z,77.20
2023-01-05T23:03:23.912Z,77.20
2023-01-05T23:05:53.920Z,77.20
2023-01-05T23:08:22.626Z,77.20
2023-01-05T23:10:50.577Z,77.10
2023-01-05T23:13:17.591Z,77.00
2023-01-05T23:15:44.564Z,77.10
2023-01-05T23:18:11.438Z,77.00
2023-01-05T23:20:38.269Z,76.90
2023-01-05T23:23:05.127Z,76.90
2023-01-05T23:25:33.457Z,77.00
2023-01-05T23:28:00.393Z,77.10
2023-01-05T23:30:27.320Z,77.20
2023-01-05T23:32:54.734Z,77.10
2023-01-05T23:35:21.745Z,77.20
2023-01-05T23:37:48.661Z,77.30
2023-01-05T23:40:15.687Z,77.30
2023-01-05T23:42:46.673Z,77.30
2023-01-05T23:45:14.198Z,77.20
2023-01-05T23:47:41.108Z,77.30
2023-01-05T23:50:08.280Z,77.20
2023-01-05T23:52:35.234Z,77.20
2023-01-05T23:55:02.253Z,77.10
2023-01-05T23:57:30.121Z,77.30
2023-01-05T23:59:57.108Z,77.40
